Time;durP1;ratioP1;P1;durP2;ratioP2;P2;SDS_P1;SDS_P2;PMS_P1;PMS_P2;Temp;Humidity;BMP_temperature;BMP_pressure;BME280_temperature;BME280_humidity;BME280_pressure;Samples;Min_cycle;Max_cycle;Signal;HPM_P1;HPM_P2
2021/12/14 00:03:55;;;;;;;4.72;2.50;;;;;;;20.41;45.87;97825.69;10529883;28;20045;-54
2021/12/14 00:09:27;;;;;;;3.03;2.30;;;;;;;20.41;45.69;97811.34;10531180;28;20043;-54
2021/12/14 00:15:06;;;;;;;5.38;2.40;;;;;;;20.40;45.74;97815.16;10497722;28;20593;-54
2021/12/14 00:20:29;;;;;;;3.85;2.15;;;;;;;20.38;45.59;97820.84;10535412;28;20056;-54
2021/12/14 00:25:52;;;;;;;4.40;2.47;;;;;;;20.35;45.73;97818.78;10536109;28;20051;-53
2021/12/14 00:31:15;;;;;;;4.95;2.35;;;;;;;20.33;45.61;97816.38;10516411;28;20040;-51
2021/12/14 00:36:36;;;;;;;5.78;2.67;;;;;;;20.32;45.84;97831.00;10530538;28;20628;-54
2021/12/14 00:41:56;;;;;;;4.43;2.40;;;;;;;20.31;45.90;97828.59;10545564;28;20040;-54
2021/12/14 00:47:16;;;;;;;3.38;2.30;;;;;;;20.29;45.75;97831.63;10516866;28;20545;-53
2021/12/14 00:52:36;;;;;;;5.47;2.28;;;;;;;20.28;45.68;97818.38;10522443;28;20086;-55
2021/12/14 00:57:58;;;;;;;2.97;2.10;;;;;;;20.27;45.56;97825.72;10506686;28;20743;-54
2021/12/14 01:03:18;;;;;;;4.10;2.08;;;;;;;20.25;45.53;97830.63;10530180;28;20058;-54
2021/12/14 01:08:40;;;;;;;3.40;2.10;;;;;;;20.24;45.76;97828.22;10513051;28;20538;-54
2021/12/14 01:14:11;;;;;;;2.65;1.85;;;;;;;20.22;45.70;97836.63;10525393;28;20048;-54
2021/12/14 01:19:36;;;;;;;2.67;2.20;;;;;;;20.22;45.77;97833.13;10491391;28;20039;-54
2021/12/14 01:25:02;;;;;;;5.00;2.25;;;;;;;20.19;45.66;97823.72;10491867;28;20060;-54
2021/12/14 01:30:37;;;;;;;3.10;2.30;;;;;;;20.15;45.47;97812.69;10509802;28;20040;-54
2021/12/14 01:35:58;;;;;;;2.45;1.83;;;;;;;20.15;45.51;97820.03;10491036;28;20052;-54
2021/12/14 01:41:18;;;;;;;4.22;2.15;;;;;;;20.13;45.65;97805.97;10494847;28;20052;-54
2021/12/14 01:46:39;;;;;;;3.05;2.05;;;;;;;20.12;45.61;97810.59;10522986;28;20055;-54
2021/12/14 01:52:28;;;;;;;3.85;1.88;;;;;;;20.10;45.51;97820.13;10480349;28;20048;-54
2021/12/14 01:57:49;;;;;;;3.75;1.88;;;;;;;20.09;45.35;97816.63;10497336;28;20509;-54
2021/12/14 02:03:12;;;;;;;3.83;2.05;;;;;;;20.08;45.32;97814.22;10527359;28;20047;-54
2021/12/14 02:08:35;;;;;;;2.78;1.90;;;;;;;20.06;45.30;97809.09;10501482;28;20138;-52
2021/12/14 02:13:55;;;;;;;2.80;1.80;;;;;;;20.05;45.10;97806.69;10498462;28;20751;-53
2021/12/14 02:19:16;;;;;;;2.72;1.80;;;;;;;20.04;45.26;97813.22;10500739;28;20411;-54
2021/12/14 02:24:38;;;;;;;2.80;1.70;;;;;;;20.02;45.02;97805.41;10520003;28;20048;-54
2021/12/14 02:30:05;;;;;;;2.47;1.80;;;;;;;20.01;45.00;97803.00;10515612;28;20060;-54
2021/12/14 02:35:27;;;;;;;2.75;1.50;;;;;;;19.99;45.12;97803.28;10514089;28;20048;-53
2021/12/14 02:41:06;;;;;;;2.40;1.75;;;;;;;19.98;45.33;97798.19;10494791;28;20052;-54
2021/12/14 02:46:38;;;;;;;4.05;1.85;;;;;;;19.96;45.26;97806.63;10503958;28;20040;-54
2021/12/14 02:52:04;;;;;;;2.60;1.67;;;;;;;19.95;45.22;97805.00;10490480;28;20064;-54
2021/12/14 02:57:28;;;;;;;3.00;1.80;;;;;;;19.94;45.32;97798.78;10515141;28;20373;-53
2021/12/14 03:02:48;;;;;;;2.45;1.80;;;;;;;19.94;45.17;97798.00;10489675;28;20053;-54
2021/12/14 03:08:15;;;;;;;2.30;1.98;;;;;;;19.92;45.02;97800.22;10499190;28;20419;-54
2021/12/14 03:13:35;;;;;;;2.65;1.83;;;;;;;19.90;45.17;97792.41;10506761;28;20052;-54
2021/12/14 03:18:56;;;;;;;2.53;1.77;;;;;;;19.89;45.15;97795.41;10506355;28;20079;-54
2021/12/14 03:24:18;;;;;;;2.90;1.65;;;;;;;19.87;45.10;97789.50;10497787;28;20103;-54
2021/12/14 03:29:38;;;;;;;2.25;1.88;;;;;;;19.86;45.19;97796.00;10491486;28;20048;-54
2021/12/14 03:34:57;;;;;;;2.00;1.65;;;;;;;19.85;45.21;97795.19;10498407;28;20101;-54
2021/12/14 03:40:19;;;;;;;1.80;1.60;;;;;;;19.85;45.13;97789.00;10481516;28;20052;-53
2021/12/14 03:45:40;;;;;;;3.05;1.92;;;;;;;19.82;45.19;97781.50;10502642;28;20100;-54
2021/12/14 03:51:01;;;;;;;1.90;1.52;;;;;;;19.79;44.96;97785.59;10501604;28;20102;-54
2021/12/14 03:56:21;;;;;;;2.22;1.60;;;;;;;19.79;45.24;97776.69;10501867;28;20044;-54
2021/12/14 04:01:45;;;;;;;2.65;1.60;;;;;;;19.78;44.90;97783.19;10507670;28;20067;-54
2021/12/14 04:07:10;;;;;;;2.08;1.85;;;;;;;19.76;44.93;97780.81;10480917;28;20079;-54
2021/12/14 04:12:30;;;;;;;1.88;1.50;;;;;;;19.75;44.94;97779.19;10497797;28;20047;-55
2021/12/14 04:17:51;;;;;;;1.98;1.70;;;;;;;19.72;45.01;97775.19;10497722;28;20423;-54
2021/12/14 04:23:22;;;;;;;2.42;1.80;;;;;;;19.71;44.83;97775.44;10479830;28;20105;-54
2021/12/14 04:28:52;;;;;;;2.35;1.80;;;;;;;19.70;44.83;97776.56;10497384;28;20047;-54
2021/12/14 04:34:14;;;;;;;2.33;1.60;;;;;;;19.69;44.88;97783.06;10501612;28;20086;-54
2021/12/14 04:39:40;;;;;;;1.95;1.60;;;;;;;19.68;44.98;97778.75;10538621;28;20040;-54
2021/12/14 04:56:31;;;;;;;1.85;1.55;;;;;;;19.64;44.86;97767.75;10501807;28;20040;-54
2021/12/14 05:01:55;;;;;;;2.03;1.60;;;;;;;19.63;44.84;97765.34;10495250;28;20056;-53
2021/12/14 05:07:48;;;;;;;2.67;1.70;;;;;;;19.62;45.06;97766.44;10507782;28;20052;-54
2021/12/14 05:13:10;;;;;;;1.70;1.60;;;;;;;19.61;44.84;97759.44;10511816;28;20636;-54
2021/12/14 05:18:30;;;;;;;1.80;1.55;;;;;;;19.59;44.98;97754.34;10507974;28;20667;-52
2021/12/14 05:23:50;;;;;;;1.67;1.55;;;;;;;19.60;44.89;97765.94;10493093;28;20119;-54
2021/12/14 05:29:11;;;;;;;1.67;1.52;;;;;;;19.60;44.84;97749.72;10482278;28;20060;-53
2021/12/14 05:34:31;;;;;;;1.83;1.48;;;;;;;19.60;44.84;97757.81;10515486;28;20044;-54
2021/12/14 05:40:04;;;;;;;1.98;1.70;;;;;;;19.60;45.05;97753.25;10493495;28;20052;-55
2021/12/14 05:45:32;;;;;;;1.55;1.30;;;;;;;19.62;45.14;97753.75;10512949;28;20051;-54
2021/12/14 05:50:57;;;;;;;1.52;1.42;;;;;;;19.63;45.08;97749.13;10508455;28;20055;-54
2021/12/14 05:56:19;;;;;;;1.73;1.30;;;;;;;19.65;45.42;97746.94;10495885;28;20058;-54
2021/12/14 06:01:39;;;;;;;1.90;1.60;;;;;;;19.68;45.40;97746.31;10509488;28;20044;-55
2021/12/14 06:06:59;;;;;;;2.38;1.70;;;;;;;19.69;45.45;97742.50;10480987;28;20052;-53
2021/12/14 06:12:23;;;;;;;1.73;1.50;;;;;;;19.73;45.74;97738.13;10486949;28;20063;-54
2021/12/14 06:17:44;;;;;;;2.17;1.65;;;;;;;19.75;45.61;97741.31;10489735;28;20044;-53
2021/12/14 06:23:25;;;;;;;1.83;1.60;;;;;;;19.79;45.79;97736.13;10505316;28;20063;-54
2021/12/14 06:29:13;;;;;;;1.88;1.55;;;;;;;19.82;45.86;97736.31;10511787;28;20032;-54
2021/12/14 06:34:32;;;;;;;1.95;1.75;;;;;;;19.86;46.05;97731.91;10497112;28;20502;-53
2021/12/14 06:40:22;;;;;;;1.60;1.45;;;;;;;19.90;45.90;97721.28;10491041;28;20048;-54
2021/12/14 06:45:51;;;;;;;2.47;1.55;;;;;;;19.94;45.76;97714.16;10510749;28;20060;-53
2021/12/14 06:51:17;;;;;;;1.70;1.40;;;;;;;19.98;46.20;97725.19;10525176;28;20047;-53
2021/12/14 06:56:41;;;;;;;2.05;1.42;;;;;;;20.01;46.35;97719.94;10507453;28;20085;-54
2021/12/14 07:02:34;;;;;;;3.92;1.80;;;;;;;20.03;46.76;97715.06;10503128;28;20044;-54
2021/12/14 07:08:12;;;;;;;2.28;1.70;;;;;;;20.05;46.28;97723.66;10512857;28;20055;-54
2021/12/14 07:13:37;;;;;;;2.30;1.40;;;;;;;20.06;46.72;97722.53;10502628;28;20040;-54
2021/12/14 07:19:00;;;;;;;2.20;1.60;;;;;;;20.07;46.41;97728.75;10521921;28;20051;-53
2021/12/14 07:24:23;;;;;;;2.70;1.60;;;;;;;20.07;46.17;97721.44;10543199;28;20056;-54
2021/12/14 07:29:43;;;;;;;8.48;2.42;;;;;;;20.07;46.11;97734.16;10520487;28;20113;-54
2021/12/14 07:35:26;;;;;;;6.57;2.92;;;;;;;20.07;46.36;97742.28;10509412;28;20104;-53
2021/12/14 07:41:11;;;;;;;10.57;3.20;;;;;;;20.08;46.27;97750.09;10546171;28;20567;-54
2021/12/14 07:46:46;;;;;;;6.38;3.10;;;;;;;20.08;46.20;97744.69;10522272;28;20060;-54
2021/12/14 07:52:14;;;;;;;9.68;3.25;;;;;;;20.08;46.00;97750.09;10536355;28;20040;-54
2021/12/14 07:57:36;;;;;;;10.50;3.42;;;;;;;20.08;45.99;97755.50;10516325;28;20047;-54
2021/12/14 08:02:58;;;;;;;7.70;3.40;;;;;;;20.08;46.11;97757.41;10526652;28;20040;-54
2021/12/14 08:08:31;;;;;;;9.15;3.45;;;;;;;20.08;46.04;97768.22;10533742;28;20055;-54
2021/12/14 08:13:51;;;;;;;9.63;3.22;;;;;;;20.09;46.15;97777.94;10503440;28;20051;-54
2021/12/14 08:19:16;;;;;;;6.55;2.97;;;;;;;20.07;46.01;97769.31;10498392;28;20048;-54
2021/12/14 08:24:37;;;;;;;9.98;3.40;;;;;;;20.06;45.98;97778.56;10485540;28;20095;-54
2021/12/14 08:29:59;;;;;;;10.40;3.60;;;;;;;20.06;46.10;97773.94;10526701;28;20556;-53
2021/12/14 08:35:20;;;;;;;7.53;3.10;;;;;;;20.05;46.18;97771.53;10498908;28;20044;-54
2021/12/14 08:40:43;;;;;;;7.25;3.20;;;;;;;20.04;45.95;97769.94;10520137;28;20060;-54
2021/12/14 08:46:09;;;;;;;7.50;3.70;;;;;;;20.03;46.14;97769.16;10527796;28;20047;-54
2021/12/14 08:51:34;;;;;;;7.32;3.28;;;;;;;20.04;46.05;97767.25;10525477;28;20048;-54
2021/12/14 08:57:00;;;;;;;6.22;2.97;;;;;;;20.05;46.05;97774.22;10525373;28;20055;-54
2021/12/14 09:02:22;;;;;;;9.82;3.15;;;;;;;20.03;46.06;97771.03;10489713;28;20479;-54
2021/12/14 09:07:43;;;;;;;5.90;2.90;;;;;;;20.03;46.07;97763.75;10506625;28;20045;-54
2021/12/14 09:13:07;;;;;;;6.15;2.80;;;;;;;20.02;46.09;97755.94;10496868;28;20472;-54
2021/12/14 09:18:30;;;;;;;5.50;2.70;;;;;;;20.00;46.00;97745.41;10492510;28;20468;-54
2021/12/14 09:23:53;;;;;;;5.80;2.75;;;;;;;20.00;45.94;97739.19;10497546;28;20093;-54
2021/12/14 09:29:15;;;;;;;5.32;2.63;;;;;;;20.00;45.88;97741.91;10491937;28;20597;-54
2021/12/14 09:34:37;;;;;;;5.93;2.60;;;;;;;19.98;45.99;97736.00;10491989;28;20423;-54
2021/12/14 09:40:09;;;;;;;3.75;2.20;;;;;;;19.97;45.78;97720.88;10491878;28;20106;-54
2021/12/14 09:45:34;;;;;;;4.95;2.53;;;;;;;19.96;45.54;97720.06;10462989;28;20051;-54
2021/12/14 09:50:56;;;;;;;4.82;2.58;;;;;;;19.94;45.22;97723.06;10535524;28;20071;-54
2021/12/14 09:56:19;;;;;;;4.15;2.45;;;;;;;19.92;45.50;97722.56;10575209;28;20048;-54
2021/12/14 10:01:44;;;;;;;3.92;2.38;;;;;;;19.91;45.26;97720.97;10574504;28;20051;-54
2021/12/14 10:07:08;;;;;;;5.60;2.83;;;;;;;19.91;45.38;97717.47;10575261;28;20051;-54
2021/12/14 10:12:51;;;;;;;4.10;2.58;;;;;;;19.90;45.46;97713.97;10555784;28;20048;-54
2021/12/14 10:18:30;;;;;;;5.03;2.20;;;;;;;19.91;45.44;97718.25;10511435;28;20384;-54
2021/12/14 10:23:52;;;;;;;2.85;2.10;;;;;;;19.90;45.40;97705.06;10524198;28;20071;-54
2021/12/14 10:29:12;;;;;;;4.70;2.20;;;;;;;19.89;45.31;97704.25;10503413;28;20558;-53
2021/12/14 10:34:35;;;;;;;3.45;2.10;;;;;;;19.86;45.35;97699.47;10512948;28;20109;-54
2021/12/14 10:45:35;;;;;;;4.03;2.40;;;;;;;19.84;45.46;97696.25;10509516;28;20105;-53
2021/12/14 10:50:56;;;;;;;4.93;2.25;;;;;;;19.84;45.56;97701.66;10523255;28;20060;-54
2021/12/14 10:56:21;;;;;;;4.03;2.33;;;;;;;19.83;45.36;97705.47;10521804;28;20059;-54
2021/12/14 11:01:48;;;;;;;3.08;1.98;;;;;;;19.81;45.46;97710.38;10541289;28;20044;-53
2021/12/14 11:07:12;;;;;;;3.70;2.13;;;;;;;19.80;45.54;97708.78;10511799;28;20083;-54
2021/12/14 11:12:36;;;;;;;3.28;2.08;;;;;;;19.78;45.35;97705.59;10523968;28;20035;-54
2021/12/14 11:18:11;;;;;;;4.50;2.00;;;;;;;19.77;45.65;97700.47;10528394;28;20048;-54
2021/12/14 11:23:33;;;;;;;4.82;2.10;;;;;;;19.77;45.91;97701.28;10529693;28;20052;-54
2021/12/14 11:28:59;;;;;;;2.83;1.77;;;;;;;19.76;46.08;97699.69;10529772;28;20063;-54
2021/12/14 11:34:37;;;;;;;3.08;1.75;;;;;;;19.73;46.46;97698.38;10487489;28;20053;-54
2021/12/14 11:39:56;;;;;;;3.78;1.90;;;;;;;19.73;46.48;97694.88;10514980;28;20101;-54
2021/12/14 11:45:20;;;;;;;4.15;2.00;;;;;;;19.72;46.62;97696.00;10543799;28;20654;-54
2021/12/14 11:50:45;;;;;;;2.65;1.90;;;;;;;19.70;46.71;97685.44;10532946;28;20539;-53
2021/12/14 11:56:10;;;;;;;2.25;1.70;;;;;;;19.69;46.90;97678.44;10537651;28;20048;-54
2021/12/14 12:01:39;;;;;;;2.50;1.70;;;;;;;19.68;47.16;97689.53;10536522;28;20047;-54
2021/12/14 12:12:27;;;;;;;2.00;1.70;;;;;;;19.66;47.31;97679.06;10518617;28;20045;-54
2021/12/14 12:17:47;;;;;;;2.63;1.70;;;;;;;19.66;47.31;97667.41;10530156;28;20093;-52
2021/12/14 12:23:12;;;;;;;2.60;1.75;;;;;;;19.65;47.47;97665.81;10515985;28;20683;-53
2021/12/14 12:28:41;;;;;;;2.05;1.50;;;;;;;19.64;47.52;97650.69;10501629;28;20059;-54
2021/12/14 12:34:02;;;;;;;2.65;1.80;;;;;;;19.62;47.55;97640.22;10534046;28;20055;-54
2021/12/14 12:39:27;;;;;;;2.60;1.67;;;;;;;19.62;47.53;97636.69;10519113;28;20395;-52
2021/12/14 12:44:47;;;;;;;1.70;1.48;;;;;;;19.60;47.69;97638.91;10495063;28;20716;-54
2021/12/14 12:50:06;;;;;;;3.50;1.80;;;;;;;19.60;47.82;97655.94;10525842;28;20032;-54
2021/12/14 12:55:31;;;;;;;1.83;1.55;;;;;;;19.59;47.78;97653.53;10510621;28;20085;-54
2021/12/14 13:00:56;;;;;;;2.42;1.50;;;;;;;19.58;48.12;97643.81;10529814;28;20040;-53
2021/12/14 13:06:20;;;;;;;1.77;1.50;;;;;;;19.56;47.99;97649.50;10524393;28;20519;-54
2021/12/14 13:11:40;;;;;;;2.30;1.60;;;;;;;19.55;48.14;97654.13;10492635;28;20056;-54
2021/12/14 13:17:03;;;;;;;3.35;1.60;;;;;;;19.53;48.10;97669.84;10515595;28;20071;-54
2021/12/14 13:22:23;;;;;;;2.30;1.65;;;;;;;19.52;48.08;97665.56;10506115;28;20044;-54
2021/12/14 13:27:43;;;;;;;2.33;1.63;;;;;;;19.51;48.28;97677.47;10506510;28;20415;-53
2021/12/14 13:33:03;;;;;;;1.83;1.30;;;;;;;19.50;48.26;97675.88;10536266;28;20036;-54
2021/12/14 13:38:22;;;;;;;1.95;1.38;;;;;;;19.48;48.32;97680.78;10515410;28;20056;-54
2021/12/14 13:43:41;;;;;;;2.70;1.60;;;;;;;19.48;48.02;97691.59;10533318;28;20097;-54
2021/12/14 13:49:01;;;;;;;2.78;1.38;;;;;;;19.45;48.23;97692.19;10518621;28;20051;-54
2021/12/14 13:54:22;;;;;;;3.42;1.60;;;;;;;19.45;48.25;97700.28;10522824;28;20542;-53
2021/12/14 13:59:41;;;;;;;1.80;1.40;;;;;;;19.44;48.29;97695.97;10508062;28;20045;-54
2021/12/14 14:05:01;;;;;;;1.83;1.40;;;;;;;19.43;48.31;97691.69;10514941;28;20044;-54
2021/12/14 14:10:21;;;;;;;2.35;1.60;;;;;;;19.42;48.36;97692.78;10529716;28;20052;-54
2021/12/14 14:15:42;;;;;;;1.75;1.23;;;;;;;19.43;48.27;97707.09;10535834;28;20042;-54
2021/12/14 14:21:05;;;;;;;1.83;1.50;;;;;;;19.42;48.05;97710.91;10530105;28;20047;-54
2021/12/14 14:26:28;;;;;;;1.50;1.30;;;;;;;19.41;48.14;97707.41;10543398;28;20064;-54
2021/12/14 14:32:03;;;;;;;1.70;1.30;;;;;;;19.42;48.24;97708.97;10504700;28;20044;-54
2021/12/14 14:37:29;;;;;;;1.70;1.60;;;;;;;19.43;48.33;97705.19;10514849;28;20080;-54
2021/12/14 14:42:55;;;;;;;1.52;1.35;;;;;;;19.44;48.28;97698.66;10525748;28;20056;-54
2021/12/14 14:48:26;;;;;;;2.28;1.33;;;;;;;19.45;48.16;97694.88;10515315;28;20049;-54
2021/12/14 14:53:45;;;;;;;1.77;1.40;;;;;;;19.47;48.12;97697.28;10504804;28;20403;-54
2021/12/14 14:59:15;;;;;;;3.53;1.30;;;;;;;19.49;48.38;97706.69;10507867;28;20117;-54
2021/12/14 15:05:06;;;;;;;1.50;1.30;;;;;;;19.52;48.42;97716.91;10509448;28;20047;-54
2021/12/14 15:10:47;;;;;;;1.98;1.20;;;;;;;19.53;48.17;97715.78;10510493;28;20082;-53
2021/12/14 15:16:11;;;;;;;1.60;1.27;;;;;;;19.56;48.03;97727.88;10506724;28;20060;-54
2021/12/14 15:21:37;;;;;;;1.77;1.48;;;;;;;19.59;48.13;97732.72;10493014;28;20049;-54
2021/12/14 15:27:08;;;;;;;2.23;1.27;;;;;;;19.61;47.94;97733.22;10515177;28;20067;-52
2021/12/14 15:32:49;;;;;;;2.20;1.48;;;;;;;19.64;47.95;97745.31;10530268;28;20141;-54
2021/12/14 15:38:16;;;;;;;1.30;1.20;;;;;;;19.65;47.93;97750.41;10515302;28;20051;-54
2021/12/14 15:43:39;;;;;;;2.05;1.40;;;;;;;19.67;47.87;97752.81;10508071;28;20045;-54
2021/12/14 15:49:12;;;;;;;1.42;1.10;;;;;;;19.69;47.77;97759.53;10516150;28;20040;-54
2021/12/14 15:54:38;;;;;;;2.25;1.45;;;;;;;19.71;47.78;97765.47;10514466;28;20483;-54
2021/12/14 16:00:02;;;;;;;1.58;1.10;;;;;;;19.72;47.69;97763.59;10524633;28;20032;-54
2021/12/14 16:05:28;;;;;;;1.50;1.13;;;;;;;19.74;47.51;97764.88;10547720;28;20048;-53
2021/12/14 16:10:53;;;;;;;1.40;1.13;;;;;;;19.78;47.63;97758.84;10554073;28;20108;-54
2021/12/14 16:16:13;;;;;;;2.22;1.30;;;;;;;19.79;47.64;97761.25;10564291;28;20044;-54
2021/12/14 16:21:33;;;;;;;1.42;1.25;;;;;;;19.82;47.25;97755.25;10519820;28;20048;-54
2021/12/14 16:26:53;;;;;;;1.33;1.10;;;;;;;19.86;47.33;97755.44;10536264;28;20077;-54
2021/12/14 16:32:18;;;;;;;1.90;1.20;;;;;;;19.88;47.29;97748.63;10533469;28;20035;-54
2021/12/14 16:37:37;;;;;;;1.20;1.10;;;;;;;19.92;47.06;97755.03;10502083;28;20056;-53
2021/12/14 16:42:57;;;;;;;1.25;0.95;;;;;;;19.94;46.90;97750.13;10503917;28;20101;-54
2021/12/14 16:48:17;;;;;;;1.85;1.30;;;;;;;19.98;46.65;97750.31;10505718;28;20459;-54
2021/12/14 16:53:47;;;;;;;7.30;2.75;;;;;;;20.02;47.04;97742.41;10530223;28;20718;-53
2021/12/14 16:59:17;;;;;;;8.57;3.10;;;;;;;20.07;47.87;97748.50;10506889;28;20040;-53
2021/12/14 17:04:39;;;;;;;5.45;2.40;;;;;;;20.12;47.93;97739.47;10521182;28;20048;-53
2021/12/14 17:09:59;;;;;;;6.47;2.15;;;;;;;20.17;49.02;97747.47;10521949;28;20032;-51
2021/12/14 17:15:26;;;;;;;5.50;2.10;;;;;;;20.22;48.90;97755.47;10508510;28;20452;-52
2021/12/14 17:20:46;;;;;;;5.03;1.90;;;;;;;20.29;48.96;97771.28;10528646;28;20052;-54
2021/12/14 17:26:10;;;;;;;4.47;1.80;;;;;;;20.33;48.81;97770.38;10544897;28;20055;-54
2021/12/14 17:31:37;;;;;;;5.25;1.80;;;;;;;20.37;48.87;97777.88;10521201;28;20141;-54
2021/12/14 17:37:01;;;;;;;3.72;1.75;;;;;;;20.41;48.41;97789.69;10517547;28;20101;-54
2021/12/14 17:42:28;;;;;;;4.57;1.77;;;;;;;20.45;48.38;97790.69;10527959;28;20048;-53
2021/12/14 17:47:59;;;;;;;4.32;2.00;;;;;;;20.48;48.12;97811.72;10505946;28;20899;-53
2021/12/14 17:53:27;;;;;;;11.48;2.42;;;;;;;20.52;48.17;97818.13;10495618;28;20044;-54
2021/12/14 17:58:55;;;;;;;3.83;1.60;;;;;;;20.55;48.05;97812.09;10489534;28;20572;-53
2021/12/14 18:04:15;;;;;;;5.03;1.77;;;;;;;20.58;47.97;97811.50;10509823;28;20052;-54
2021/12/14 18:09:34;;;;;;;12.20;1.83;;;;;;;20.59;47.91;97817.69;10498826;28;20055;-56
2021/12/14 18:14:56;;;;;;;6.25;1.88;;;;;;;20.60;47.94;97819.31;10490316;28;20113;-53
2021/12/14 18:20:24;;;;;;;5.75;1.80;;;;;;;20.63;47.80;97841.16;10497091;28;20052;-55
2021/12/14 18:25:44;;;;;;;2.85;1.60;;;;;;;20.65;47.84;97825.41;10523659;28;20048;-54
2021/12/14 18:31:05;;;;;;;2.53;1.60;;;;;;;20.65;47.76;97833.53;10531031;28;20059;-53
2021/12/14 18:36:39;;;;;;;4.13;1.60;;;;;;;20.65;47.82;97830.03;10501607;28;20098;-52
2021/12/14 18:42:08;;;;;;;4.97;1.73;;;;;;;20.66;47.79;97835.16;10490028;28;20083;-55
2021/12/14 18:53:05;;;;;;;4.25;1.85;;;;;;;20.66;47.85;97843.28;10500682;28;20044;-53
2021/12/14 18:58:36;;;;;;;5.57;1.90;;;;;;;20.68;47.89;97838.38;10521014;28;20048;-53
2021/12/14 19:04:03;;;;;;;3.70;1.80;;;;;;;20.67;47.95;97842.16;10527439;28;20105;-55
2021/12/14 19:09:39;;;;;;;6.38;1.92;;;;;;;20.69;47.61;97841.88;10509729;28;20060;-56
2021/12/14 19:15:20;;;;;;;2.88;1.50;;;;;;;20.68;47.85;97838.38;10499048;28;20040;-55
2021/12/14 19:20:52;;;;;;;3.47;1.63;;;;;;;20.67;47.67;97836.75;10485782;28;20048;-55
2021/12/14 19:26:22;;;;;;;4.15;1.50;;;;;;;20.68;48.02;97841.06;10499645;28;20064;-56
2021/12/14 19:31:49;;;;;;;4.22;1.80;;;;;;;20.69;48.15;97849.97;10496447;28;20101;-56
2021/12/14 19:37:22;;;;;;;2.95;1.73;;;;;;;20.69;48.54;97847.28;10523420;28;20694;-56
2021/12/14 19:42:42;;;;;;;3.15;1.70;;;;;;;20.69;48.44;97861.59;10527301;28;20410;-56
2021/12/14 19:48:30;;;;;;;3.92;1.67;;;;;;;20.69;48.54;97863.53;10521827;28;20078;-55
2021/12/14 19:53:50;;;;;;;7.47;2.05;;;;;;;20.69;48.52;97855.41;10530622;28;20498;-54
2021/12/14 19:59:09;;;;;;;3.70;1.88;;;;;;;20.69;48.74;97855.41;10544850;28;20051;-54
2021/12/14 20:04:33;;;;;;;3.92;2.03;;;;;;;20.68;48.70;97854.59;10511897;28;20048;-53
2021/12/14 20:09:53;;;;;;;7.32;1.92;;;;;;;20.67;48.86;97853.00;10510612;28;20053;-54
2021/12/14 20:15:25;;;;;;;4.10;1.70;;;;;;;20.68;48.74;97856.50;10502816;28;20055;-52
2021/12/14 20:20:51;;;;;;;4.32;1.90;;;;;;;20.67;48.47;97858.41;10507754;28;20056;-52
2021/12/14 20:26:14;;;;;;;4.32;1.40;;;;;;;20.68;48.59;97860.03;10523374;28;20050;-53
2021/12/14 20:31:37;;;;;;;2.85;1.65;;;;;;;20.66;48.64;97878.47;10520756;28;20040;-53
2021/12/14 20:36:57;;;;;;;2.33;1.63;;;;;;;20.64;48.60;97877.16;10509455;28;20050;-53
2021/12/14 20:42:48;;;;;;;3.88;1.90;;;;;;;20.63;48.48;97879.06;10505630;28;20048;-53
2021/12/14 20:48:13;;;;;;;4.13;1.70;;;;;;;20.64;48.65;97879.88;10519868;28;20048;-52
2021/12/14 20:53:39;;;;;;;2.80;1.75;;;;;;;20.65;48.53;97886.91;10521833;28;20097;-52
2021/12/14 20:59:08;;;;;;;3.53;2.00;;;;;;;20.62;48.48;97893.75;10509704;28;20055;-53
2021/12/14 21:04:39;;;;;;;3.63;1.80;;;;;;;20.62;48.65;97890.22;10503103;28;20052;-53
2021/12/14 21:10:19;;;;;;;3.95;1.60;;;;;;;20.61;48.48;97904.88;10495031;28;20053;-54
2021/12/14 21:15:38;;;;;;;4.55;1.73;;;;;;;20.61;48.56;97913.00;10486650;28;20048;-52
2021/12/14 21:21:03;;;;;;;4.78;2.70;;;;;;;20.59;48.52;97907.88;10492462;28;20622;-53
2021/12/14 21:26:24;;;;;;;6.40;5.80;;;;;;;20.58;48.63;97914.38;10500711;28;20419;-53
2021/12/14 21:31:44;;;;;;;9.55;5.53;;;;;;;20.59;48.69;97912.47;10526060;28;20469;-53
2021/12/14 21:37:05;;;;;;;7.50;4.95;;;;;;;20.57;48.68;97914.66;10527189;28;20530;-54
2021/12/14 21:42:32;;;;;;;8.23;5.38;;;;;;;20.56;48.71;97916.56;10511962;28;20067;-54
2021/12/14 21:47:51;;;;;;;6.93;4.40;;;;;;;20.53;48.81;97909.84;10544053;28;20036;-53
2021/12/14 21:53:11;;;;;;;6.65;4.15;;;;;;;20.53;48.70;97914.47;10530184;28;20057;-54
2021/12/14 21:58:32;;;;;;;4.75;3.67;;;;;;;20.52;48.78;97912.84;10526775;28;20447;-53
2021/12/14 22:03:52;;;;;;;5.78;3.85;;;;;;;20.51;48.92;97922.88;10527724;28;20450;-54
2021/12/14 22:09:12;;;;;;;5.43;3.88;;;;;;;20.51;48.90;97930.22;10542947;28;20423;-54
2021/12/14 22:14:34;;;;;;;5.43;3.65;;;;;;;20.49;48.88;97929.72;10525613;28;20048;-53
2021/12/14 22:19:54;;;;;;;5.10;3.40;;;;;;;20.48;48.82;97936.22;10531764;28;20390;-54
2021/12/14 22:25:19;;;;;;;4.43;3.13;;;;;;;20.48;48.78;97942.47;10529036;28;20056;-53
2021/12/14 22:30:39;;;;;;;6.18;3.13;;;;;;;20.47;48.56;97940.03;10518036;28;20491;-54
2021/12/14 22:35:59;;;;;;;4.20;3.22;;;;;;;20.45;48.82;97943.06;10531283;28;20041;-54
2021/12/14 22:41:46;;;;;;;5.03;3.30;;;;;;;20.43;48.63;97939.06;10518744;28;20645;-53
2021/12/14 22:47:07;;;;;;;5.15;3.15;;;;;;;20.42;48.59;97940.13;10501104;28;20052;-54
2021/12/14 22:52:29;;;;;;;4.65;3.22;;;;;;;20.40;48.61;97937.72;10530872;28;20050;-51
2021/12/14 22:57:49;;;;;;;5.28;3.13;;;;;;;20.39;48.68;97938.84;10560500;28;20487;-54
2021/12/14 23:03:09;;;;;;;4.47;3.20;;;;;;;20.37;48.51;97934.84;10545243;28;20047;-54
2021/12/14 23:08:28;;;;;;;4.07;3.00;;;;;;;20.37;48.43;97937.56;10545499;28;20043;-54
2021/12/14 23:14:16;;;;;;;5.10;3.13;;;;;;;20.33;48.59;97930.03;10531548;28;20048;-53
2021/12/14 23:25:04;;;;;;;4.35;3.22;;;;;;;20.30;48.35;97936.03;10536754;28;20059;-54
2021/12/14 23:30:51;;;;;;;3.53;2.67;;;;;;;20.30;48.59;97936.03;10531319;28;20059;-53
2021/12/14 23:36:14;;;;;;;3.55;2.72;;;;;;;20.29;48.34;97930.94;10531312;28;20437;-54
2021/12/14 23:41:37;;;;;;;3.22;2.70;;;;;;;20.28;48.29;97932.03;10489331;28;20055;-53
2021/12/14 23:52:18;;;;;;;3.30;2.72;;;;;;;20.23;48.23;97924.81;10496733;28;20052;-54
2021/12/14 23:57:37;;;;;;;3.15;2.80;;;;;;;20.22;48.16;97917.78;10496334;28;20056;-52
